ダブリン の空港の天気 - METARとTAF

ダブリン空港 ( EIDW / DUB ) - アイルランド ダブリン
飛行場実況気象(Metar)
観測時間03/07 02:00 IST (03/07 02:00 UTC)
風向・風速西 2m/s
視程10km以上
天気現象
少しの雲 雲底高度 1130m
気温1℃
湿度69%
気圧1030hPa
METAREIDW 070200Z 26004KT 9999 FEW037 01/M04 Q1030 NOSIG
過去の天気等 Google飛行場航空写真 Wunderground天気予報

過去48時間のMETAR

飛行場予報(TAF)
発表時間: 3/06 23:00 IST (3/06 23:00 UTC)
予報対象時間: 7日0時 IST ~ 8日0時 IST
風向・風速西南西 3m/s
視程10km以上
少しの雲 雲底高度 610m
全天の4割程度の雲 雲底高度 1070m
TAF EIDW 062300Z 0700/0724 24005KT 9999 FEW020 SCT035